createdAt,value
2022-11-16T00:00:26.423Z,94390.38
2022-11-16T00:02:28.209Z,94386.72
2022-11-16T00:04:29.934Z,94385.06
2022-11-16T00:06:31.701Z,94374.56
2022-11-16T00:08:39.811Z,94385.66
2022-11-16T00:10:41.625Z,94383.56
2022-11-16T00:12:43.298Z,94384.53
2022-11-16T00:14:45.065Z,94379.69
2022-11-16T00:16:46.789Z,94375.97
2022-11-16T00:18:48.519Z,94362.53
2022-11-16T00:20:51.036Z,94374.97
2022-11-16T00:22:52.688Z,94371.31
2022-11-16T00:24:54.289Z,94371.97
2022-11-16T00:26:56.296Z,94377.50
2022-11-16T00:28:58.036Z,94366.91
2022-11-16T00:31:00.656Z,94362.38
2022-11-16T00:33:06.351Z,94363.72
2022-11-16T00:35:08.545Z,94368.34
2022-11-16T00:37:10.193Z,94371.19
2022-11-16T00:39:13.552Z,94359.66
2022-11-16T00:41:15.211Z,94359.16
2022-11-16T00:43:16.951Z,94364.03
2022-11-16T00:45:18.611Z,94358.25
2022-11-16T00:47:20.337Z,94365.34
2022-11-16T00:49:21.999Z,94361.19
2022-11-16T00:51:23.708Z,94357.75
2022-11-16T00:53:25.391Z,94355.16
2022-11-16T00:55:27.122Z,94353.81
2022-11-16T00:57:28.832Z,94352.81
2022-11-16T00:59:30.516Z,94346.66
2022-11-16T01:01:32.651Z,94340.78
2022-11-16T01:03:38.081Z,94334.56
2022-11-16T01:05:39.839Z,94338.44
2022-11-16T01:07:41.920Z,94333.22
2022-11-16T01:09:43.479Z,94334.88
2022-11-16T01:12:03.790Z,94324.75
2022-11-16T01:14:08.281Z,94321.84
2022-11-16T01:16:13.062Z,94318.84
2022-11-16T01:18:14.995Z,94318.72
2022-11-16T01:20:19.609Z,94322.44
2022-11-16T01:22:21.428Z,94307.13
2022-11-16T01:24:24.599Z,94309.72
2022-11-16T01:26:26.264Z,94322.94
2022-11-16T01:28:29.785Z,94322.16
2022-11-16T01:30:31.558Z,94328.50
2022-11-16T01:32:33.551Z,94325.94
2022-11-16T01:34:35.721Z,94326.53
2022-11-16T01:36:37.413Z,94326.16
2022-11-16T01:38:39.181Z,94320.72
2022-11-16T01:40:40.928Z,94327.16
2022-11-16T01:42:42.604Z,94322.50
2022-11-16T01:44:44.312Z,94320.84
2022-11-16T01:46:45.981Z,94304.09
2022-11-16T01:48:49.787Z,94310.47
2022-11-16T01:50:51.397Z,94320.81
2022-11-16T01:52:59.634Z,94314.78
2022-11-16T01:55:01.631Z,94312.38
2022-11-16T01:57:06.364Z,94306.84
2022-11-16T01:59:08.374Z,94305.03
2022-11-16T02:01:10.045Z,94296.31
2022-11-16T02:03:11.940Z,94301.00
2022-11-16T02:05:17.527Z,94299.06
2022-11-16T02:08:08.641Z,94292.53
2022-11-16T02:10:38.344Z,94283.06
2022-11-16T02:12:52.034Z,94282.59
2022-11-16T02:15:08.625Z,94281.75
2022-11-16T02:17:36.529Z,94280.88
2022-11-16T02:19:45.543Z,94275.91
2022-11-16T02:22:14.444Z,94276.16
2022-11-16T02:24:25.497Z,94286.41
2022-11-16T02:26:36.152Z,94283.13
2022-11-16T02:29:15.080Z,94291.34
2022-11-16T02:32:11.263Z,94290.91
2022-11-16T02:34:15.873Z,94284.34
2022-11-16T02:36:20.562Z,94281.50
2022-11-16T02:38:28.559Z,94273.84
2022-11-16T02:40:31.653Z,94280.00
2022-11-16T02:42:39.587Z,94278.84
2022-11-16T02:44:45.355Z,94267.00
2022-11-16T02:46:49.153Z,94269.78
2022-11-16T02:48:53.653Z,94278.03
2022-11-16T02:50:55.957Z,94271.50
2022-11-16T02:52:57.769Z,94273.72
2022-11-16T02:54:59.479Z,94272.91
2022-11-16T02:57:06.144Z,94274.56
2022-11-16T02:59:08.944Z,94278.53
2022-11-16T03:01:16.694Z,94272.50
2022-11-16T03:03:28.266Z,94266.88
2022-11-16T03:05:50.401Z,94263.72
2022-11-16T03:08:02.110Z,94265.34
2022-11-16T03:10:04.232Z,94258.09
2022-11-16T03:12:08.565Z,94258.38
2022-11-16T03:14:14.929Z,94246.28
2022-11-16T03:16:23.719Z,94247.78
2022-11-16T03:18:27.019Z,94250.13
2022-11-16T03:20:30.206Z,94249.44
2022-11-16T03:22:42.015Z,94247.78
2022-11-16T03:24:43.762Z,94253.72
2022-11-16T03:26:52.897Z,94254.84
2022-11-16T03:29:10.761Z,94258.16
2022-11-16T03:31:21.744Z,94247.09
2022-11-16T03:33:28.525Z,94253.69
2022-11-16T03:35:43.354Z,94258.13
2022-11-16T03:37:47.141Z,94259.50
2022-11-16T03:39:49.617Z,94252.69
2022-11-16T03:41:51.288Z,94245.75
2022-11-16T03:43:53.426Z,94257.09
2022-11-16T03:45:55.259Z,94255.72
2022-11-16T03:47:56.930Z,94249.97
2022-11-16T03:49:58.711Z,94254.09
2022-11-16T03:52:00.692Z,94261.19
2022-11-16T03:54:02.332Z,94254.22
2022-11-16T03:56:04.531Z,94254.22
2022-11-16T03:58:06.335Z,94249.56
2022-11-16T04:00:08.828Z,94248.63
2022-11-16T04:02:10.725Z,94238.94
2022-11-16T04:04:33.100Z,94238.66
2022-11-16T04:06:53.349Z,94231.38
2022-11-16T04:09:13.552Z,94233.00
2022-11-16T04:11:34.678Z,94236.44
2022-11-16T04:13:54.846Z,94214.97
2022-11-16T04:16:15.169Z,94225.38
2022-11-16T04:18:36.012Z,94222.22
2022-11-16T04:20:57.016Z,94215.78
2022-11-16T04:23:20.169Z,94213.56
2022-11-16T04:25:25.945Z,94212.03
2022-11-16T04:27:47.891Z,94218.03
2022-11-16T04:29:49.537Z,94202.19
2022-11-16T04:32:10.020Z,94205.91
2022-11-16T04:34:30.459Z,94215.78
2022-11-16T04:36:50.785Z,94208.13
2022-11-16T04:38:52.397Z,94209.66
2022-11-16T04:40:54.080Z,94204.28
2022-11-16T04:42:57.623Z,94202.50
2022-11-16T04:45:17.876Z,94209.56
2022-11-16T04:47:19.632Z,94210.66
2022-11-16T04:49:21.368Z,94208.31
2022-11-16T04:51:22.976Z,94217.22
2022-11-16T04:53:27.160Z,94205.06
2022-11-16T04:55:28.844Z,94209.81
2022-11-16T04:57:30.472Z,94204.47
2022-11-16T04:59:32.303Z,94203.81
2022-11-16T05:01:52.577Z,94208.47
2022-11-16T05:03:54.276Z,94207.94
2022-11-16T05:05:56.030Z,94204.53
2022-11-16T05:07:57.784Z,94199.34
2022-11-16T05:09:59.387Z,94201.81
2022-11-16T05:12:00.956Z,94195.78
2022-11-16T05:14:04.093Z,94203.19
2022-11-16T05:16:05.969Z,94197.53
2022-11-16T05:18:07.606Z,94190.25
2022-11-16T05:20:29.023Z,94185.91
2022-11-16T05:22:30.739Z,94191.88
2022-11-16T05:24:34.976Z,94189.38
2022-11-16T05:26:36.665Z,94192.41
2022-11-16T05:28:38.326Z,94195.09
2022-11-16T05:30:39.934Z,94196.19
2022-11-16T05:32:41.673Z,94189.56
2022-11-16T05:34:43.420Z,94191.75
2022-11-16T05:36:44.993Z,94193.06
2022-11-16T05:38:46.739Z,94190.06
2022-11-16T05:40:48.505Z,94189.81
2022-11-16T05:42:50.110Z,94188.50
2022-11-16T05:44:51.716Z,94193.41
2022-11-16T05:46:53.821Z,94198.16
2022-11-16T05:48:55.529Z,94196.22
2022-11-16T05:51:00.532Z,94188.75
2022-11-16T05:53:02.384Z,94189.81
2022-11-16T05:55:04.353Z,94187.03
2022-11-16T05:57:06.082Z,94188.44
2022-11-16T05:59:10.140Z,94187.72
2022-11-16T06:01:15.381Z,94196.56
2022-11-16T06:03:17.177Z,94200.97
2022-11-16T06:05:18.802Z,94203.03
2022-11-16T06:07:20.512Z,94193.22
2022-11-16T06:09:22.279Z,94200.63
2022-11-16T06:11:24.272Z,94197.59
2022-11-16T06:13:25.946Z,94206.16
2022-11-16T06:15:27.605Z,94201.97
2022-11-16T06:17:29.221Z,94202.91
2022-11-16T06:19:32.566Z,94196.66
2022-11-16T06:21:34.524Z,94194.50
2022-11-16T06:23:36.209Z,94199.84
2022-11-16T06:25:39.824Z,94195.69
2022-11-16T06:27:41.548Z,94190.56
2022-11-16T06:29:43.215Z,94193.41
2022-11-16T06:31:44.944Z,94193.81
2022-11-16T06:33:46.547Z,94197.59
2022-11-16T06:35:48.231Z,94197.81
2022-11-16T06:37:49.945Z,94197.09
2022-11-16T06:39:51.561Z,94199.41
2022-11-16T06:41:53.209Z,94189.22
2022-11-16T06:43:54.931Z,94191.53
2022-11-16T06:45:58.562Z,94196.59
2022-11-16T06:48:00.280Z,94196.00
2022-11-16T06:50:02.374Z,94198.66
2022-11-16T06:52:04.624Z,94190.56
2022-11-16T06:56:25.413Z,94198.84
2022-11-16T06:58:29.395Z,94196.06
2022-11-16T07:00:31.095Z,94195.63
2022-11-16T07:02:32.787Z,94191.31
2022-11-16T07:04:34.400Z,94193.75
2022-11-16T07:06:36.108Z,94190.84
2022-11-16T07:08:38.021Z,94192.34
2022-11-16T07:10:39.993Z,94187.66
2022-11-16T07:12:42.123Z,94191.44
2022-11-16T07:14:45.432Z,94192.47
2022-11-16T07:16:47.083Z,94189.25
2022-11-16T07:18:49.048Z,94186.03
2022-11-16T07:20:50.625Z,94189.75
2022-11-16T07:22:55.689Z,94186.41
2022-11-16T07:24:57.727Z,94181.47
2022-11-16T07:26:59.460Z,94180.16
2022-11-16T07:29:02.617Z,94185.84
2022-11-16T07:31:06.330Z,94178.97
2022-11-16T07:33:07.869Z,94180.34
2022-11-16T07:35:09.520Z,94181.06
2022-11-16T07:37:11.146Z,94175.91
2022-11-16T07:39:12.931Z,94169.94
2022-11-16T07:41:17.062Z,94178.13
2022-11-16T07:43:18.732Z,94168.50
2022-11-16T07:45:20.358Z,94171.97
2022-11-16T07:47:22.033Z,94174.13
2022-11-16T07:49:23.684Z,94172.22
2022-11-16T07:51:25.609Z,94168.44
2022-11-16T07:53:27.197Z,94167.13
2022-11-16T07:55:32.070Z,94162.56
2022-11-16T07:57:33.713Z,94160.63
2022-11-16T07:59:35.393Z,94165.38
2022-11-16T08:01:37.070Z,94167.81
2022-11-16T08:03:39.603Z,94158.06
2022-11-16T08:05:41.592Z,94169.97
2022-11-16T08:07:43.230Z,94158.25
2022-11-16T08:09:45.061Z,94155.34
2022-11-16T08:11:47.323Z,94149.03
2022-11-16T08:13:49.456Z,94150.69
2022-11-16T08:15:51.123Z,94146.66
2022-11-16T08:17:52.852Z,94139.50
2022-11-16T08:19:54.611Z,94138.84
2022-11-16T08:21:56.278Z,94138.16
2022-11-16T08:23:58.893Z,94131.38
2022-11-16T08:26:02.828Z,94135.28
2022-11-16T08:28:04.628Z,94128.94
2022-11-16T08:30:09.947Z,94129.44
2022-11-16T08:32:11.616Z,94130.94
2022-11-16T08:34:13.312Z,94127.34
2022-11-16T08:36:17.591Z,94130.13
2022-11-16T08:38:19.238Z,94120.94
2022-11-16T08:40:21.117Z,94129.56
2022-11-16T08:42:22.870Z,94125.66
2022-11-16T08:44:24.570Z,94124.38
2022-11-16T08:46:26.257Z,94125.63
2022-11-16T08:48:28.056Z,94119.28
2022-11-16T08:50:31.404Z,94121.00
2022-11-16T08:52:35.167Z,94130.56
2022-11-16T08:54:36.805Z,94128.53
2022-11-16T08:56:38.427Z,94128.22
2022-11-16T08:58:43.611Z,94124.53
2022-11-16T09:00:45.303Z,94126.78
2022-11-16T09:02:47.111Z,94116.28
2022-11-16T09:04:48.649Z,94124.66
2022-11-16T09:06:52.708Z,94116.44
2022-11-16T09:08:54.902Z,94105.19
2022-11-16T09:10:56.589Z,94108.00
2022-11-16T09:15:19.282Z,94107.47
2022-11-16T09:17:23.319Z,94099.66
2022-11-16T09:19:25.119Z,94089.34
2022-11-16T09:21:28.781Z,94088.88
2022-11-16T09:23:30.592Z,94085.41
2022-11-16T09:25:32.220Z,94077.53
2022-11-16T09:27:33.899Z,94069.63
2022-11-16T09:29:35.647Z,94062.41
2022-11-16T09:31:38.415Z,94067.59
2022-11-16T09:33:41.108Z,94065.13
2022-11-16T09:35:50.354Z,94053.47
2022-11-16T09:37:51.939Z,94043.50
2022-11-16T09:42:40.689Z,94044.16
2022-11-16T09:44:49.105Z,94039.25
2022-11-16T11:27:28.350Z,93873.88
2022-11-16T11:29:38.001Z,93871.53
2022-11-16T11:31:44.155Z,93873.63
2022-11-16T11:33:51.481Z,93868.66
2022-11-16T11:36:05.794Z,93865.44
2022-11-16T11:38:08.497Z,93867.38
2022-11-16T11:42:29.620Z,93859.34
2022-11-16T11:44:42.992Z,93855.44
2022-11-16T11:47:56.100Z,93850.13
2022-11-16T11:49:22.094Z,93851.69
2022-11-16T11:51:41.245Z,93842.84
2022-11-16T11:53:47.380Z,93839.41
2022-11-16T11:55:55.851Z,93827.13
2022-11-16T11:57:58.227Z,93826.94
2022-11-16T12:00:00.484Z,93816.38
2022-11-16T12:02:14.273Z,93819.81
2022-11-16T12:04:36.941Z,93827.13
2022-11-16T12:06:57.472Z,93829.97
2022-11-16T12:09:17.284Z,93825.91
2022-11-16T12:11:18.840Z,93828.91
2022-11-16T12:13:51.225Z,93829.25
2022-11-16T12:16:25.869Z,93824.53
2022-11-16T12:18:43.377Z,93823.28
2022-11-16T12:21:07.731Z,93812.34
2022-11-16T12:23:24.757Z,93807.94
2022-11-16T12:25:51.719Z,93808.72
2022-11-16T12:28:36.333Z,93802.81
2022-11-16T12:31:27.353Z,93804.56
2022-11-16T12:33:55.009Z,93795.69
2022-11-16T12:36:08.789Z,93791.25
2022-11-16T12:38:44.972Z,93789.34
2022-11-16T12:41:15.625Z,93791.53
2022-11-16T12:43:29.114Z,93785.81
2022-11-16T12:46:10.421Z,93791.56
2022-11-16T12:48:33.386Z,93784.03
2022-11-16T12:50:53.150Z,93779.75
2022-11-16T12:53:07.525Z,93774.44
2022-11-16T12:55:38.709Z,93769.25
2022-11-16T12:57:40.257Z,93776.06
2022-11-16T12:59:50.698Z,93770.50
2022-11-16T13:02:08.600Z,93771.59
2022-11-16T13:04:14.970Z,93768.41
2022-11-16T13:06:44.275Z,93761.56
2022-11-16T13:08:57.393Z,93766.06
2022-11-16T13:11:16.383Z,93769.81
2022-11-16T13:13:38.327Z,93752.13
2022-11-16T13:15:41.675Z,93760.63
2022-11-16T13:17:47.687Z,93759.00
2022-11-16T13:20:11.667Z,93761.00
2022-11-16T13:22:23.170Z,93758.19
2022-11-16T13:24:27.507Z,93746.88
2022-11-16T13:27:23.857Z,93753.16
2022-11-16T13:29:46.873Z,93752.59
2022-11-16T13:32:00.581Z,93745.94
2022-11-16T13:34:12.952Z,93749.34
2022-11-16T13:36:43.480Z,93746.34
2022-11-16T13:38:53.451Z,93745.78
2022-11-16T13:41:28.903Z,93739.53
2022-11-16T13:43:30.476Z,93744.38
2022-11-16T13:45:55.194Z,93753.25
2022-11-16T13:47:58.363Z,93762.72
2022-11-16T13:50:01.790Z,93753.41
2022-11-16T13:52:28.635Z,93754.81
2022-11-16T13:54:46.060Z,93754.19
2022-11-16T13:56:50.274Z,93761.31
2022-11-16T13:58:55.004Z,93753.22
2022-11-16T14:01:10.764Z,93748.66
2022-11-16T14:03:15.196Z,93743.00
2022-11-16T14:05:40.750Z,93745.44
2022-11-16T14:07:49.541Z,93740.44
2022-11-16T14:09:51.218Z,93738.66
2022-11-16T14:11:53.010Z,93732.22
2022-11-16T14:13:54.764Z,93739.72
2022-11-16T14:16:17.885Z,93733.88
2022-11-16T14:18:22.215Z,93737.56
2022-11-16T14:20:53.947Z,93734.28
2022-11-16T14:23:25.417Z,93734.75
2022-11-16T14:25:36.352Z,93733.06
2022-11-16T14:28:16.391Z,93727.44
2022-11-16T14:30:26.400Z,93731.13
2022-11-16T14:32:42.427Z,93733.19
2022-11-16T14:34:46.736Z,93730.16
2022-11-16T14:36:49.341Z,93727.75
2022-11-16T14:38:50.963Z,93733.81
2022-11-16T14:40:59.133Z,93732.78
2022-11-16T14:43:21.529Z,93733.41
2022-11-16T14:45:24.686Z,93737.84
2022-11-16T14:47:27.919Z,93730.97
2022-11-16T14:49:31.597Z,93730.78
2022-11-16T14:51:35.983Z,93730.78
2022-11-16T14:53:40.001Z,93728.56
2022-11-16T14:55:43.332Z,93725.69
2022-11-16T14:57:45.235Z,93718.44
2022-11-16T14:59:46.825Z,93720.22
2022-11-16T15:01:48.420Z,93719.59
2022-11-16T15:03:55.752Z,93721.00
2022-11-16T15:05:59.646Z,93717.16
2022-11-16T15:08:01.441Z,93710.91
2022-11-16T15:10:03.402Z,93722.84
2022-11-16T15:12:25.447Z,93720.84
2022-11-16T15:14:30.202Z,93720.66
2022-11-16T15:16:31.877Z,93719.81
2022-11-16T15:18:33.453Z,93711.31
2022-11-16T15:20:44.080Z,93716.38
2022-11-16T15:22:48.792Z,93716.06
2022-11-16T15:24:58.126Z,93718.69
2022-11-16T15:27:08.821Z,93697.44
2022-11-16T15:29:21.152Z,93714.81
2022-11-16T15:31:23.480Z,93711.00
2022-11-16T15:33:31.204Z,93710.25
2022-11-16T15:35:35.544Z,93710.03
2022-11-16T15:37:37.127Z,93707.84
2022-11-16T15:39:39.170Z,93708.50
2022-11-16T15:41:41.101Z,93716.97
2022-11-16T15:44:12.499Z,93712.81
2022-11-16T15:46:14.127Z,93697.25
2022-11-16T15:48:26.047Z,93713.16
2022-11-16T15:50:28.232Z,93715.78
2022-11-16T15:53:00.094Z,93719.03
2022-11-16T15:55:04.769Z,93708.81
2022-11-16T15:57:08.276Z,93709.75
2022-11-16T15:59:12.181Z,93715.00
2022-11-16T16:01:14.188Z,93709.91
2022-11-16T16:03:18.607Z,93713.00
2022-11-16T16:05:32.992Z,93720.28
2022-11-16T16:07:38.732Z,93705.28
2022-11-16T16:09:41.021Z,93713.28
2022-11-16T16:11:42.602Z,93711.75
2022-11-16T16:13:57.059Z,93717.44
2022-11-16T16:16:17.344Z,93719.09
2022-11-16T16:18:40.320Z,93714.47
2022-11-16T16:20:47.454Z,93707.34
2022-11-16T16:22:49.194Z,93712.84
2022-11-16T16:24:50.860Z,93715.09
2022-11-16T16:26:52.498Z,93719.97
2022-11-16T16:28:54.253Z,93713.13
2022-11-16T16:30:55.883Z,93712.25
2022-11-16T16:32:57.542Z,93712.25
2022-11-16T16:35:01.400Z,93718.84
2022-11-16T16:37:02.910Z,93720.09
2022-11-16T16:39:04.508Z,93713.47
2022-11-16T16:41:06.826Z,93706.41
2022-11-16T16:43:08.396Z,93720.63
2022-11-16T16:45:19.791Z,93700.97
2022-11-16T16:47:21.414Z,93716.25
2022-11-16T16:49:22.967Z,93703.50
2022-11-16T16:51:24.729Z,93713.22
2022-11-16T16:53:26.310Z,93699.50
2022-11-16T16:55:28.381Z,93710.00
2022-11-16T16:57:31.346Z,93715.09
2022-11-16T16:59:32.920Z,93711.50
2022-11-16T17:01:34.508Z,93702.00
2022-11-16T17:03:36.702Z,93707.88
2022-11-16T17:05:38.980Z,93708.94
2022-11-16T17:07:40.620Z,93708.63
2022-11-16T17:09:42.591Z,93705.19
2022-11-16T17:11:44.237Z,93703.88
2022-11-16T17:13:46.346Z,93703.25
2022-11-16T17:15:47.977Z,93704.31
2022-11-16T17:17:49.815Z,93700.97
2022-11-16T17:19:51.977Z,93702.63
2022-11-16T17:21:54.189Z,93695.63
2022-11-16T17:23:56.081Z,93699.13
2022-11-16T17:25:57.674Z,93691.50
2022-11-16T17:27:59.661Z,93694.88
2022-11-16T17:30:01.268Z,93694.25
2022-11-16T17:32:03.379Z,93696.31
2022-11-16T17:34:07.306Z,93691.94
2022-11-16T17:36:13.179Z,93683.59
2022-11-16T17:38:14.766Z,93700.34
2022-11-16T17:40:16.432Z,93689.22
2022-11-16T17:42:18.039Z,93695.16
2022-11-16T17:44:21.872Z,93685.03
2022-11-16T17:46:25.759Z,93684.41
2022-11-16T17:48:27.382Z,93689.69
2022-11-16T17:50:29.201Z,93691.78
2022-11-16T17:52:30.966Z,93682.09
2022-11-16T17:54:32.560Z,93686.53
2022-11-16T17:56:34.229Z,93676.06
2022-11-16T17:58:35.855Z,93682.91
2022-11-16T18:00:37.444Z,93668.53
2022-11-16T18:02:39.135Z,93675.16
2022-11-16T18:04:40.930Z,93682.66
2022-11-16T18:06:42.557Z,93684.09
2022-11-16T18:08:45.159Z,93672.41
2022-11-16T18:10:46.766Z,93676.28
2022-11-16T18:12:48.338Z,93667.84
2022-11-16T18:15:13.341Z,93668.78
2022-11-16T18:17:11.728Z,93660.91
2022-11-16T18:19:17.583Z,93649.44
2022-11-16T18:21:20.927Z,93649.44
2022-11-16T18:23:22.767Z,93655.50
2022-11-16T18:25:25.299Z,93649.06
2022-11-16T18:27:26.904Z,93640.03
2022-11-16T18:29:28.723Z,93653.94
2022-11-16T18:31:33.167Z,93644.94
2022-11-16T18:33:36.642Z,93643.34
2022-11-16T18:35:38.536Z,93647.81
2022-11-16T18:37:40.096Z,93651.69
2022-11-16T18:39:41.741Z,93653.75
2022-11-16T18:41:48.612Z,93657.81
2022-11-16T18:43:57.176Z,93660.03
2022-11-16T18:45:58.884Z,93657.41
2022-11-16T18:48:00.431Z,93664.31
2022-11-16T18:50:02.310Z,93659.22
2022-11-16T18:52:04.197Z,93661.84
2022-11-16T18:54:05.962Z,93659.22
2022-11-16T18:56:07.948Z,93666.72
2022-11-16T18:58:23.101Z,93660.47
2022-11-16T19:00:31.177Z,93641.59
2022-11-16T19:02:35.677Z,93647.81
2022-11-16T19:04:40.009Z,93653.44
2022-11-16T19:06:41.574Z,93646.59
2022-11-16T19:08:43.542Z,93649.97
2022-11-16T19:10:45.226Z,93657.44
2022-11-16T19:12:46.814Z,93651.84
2022-11-16T19:14:48.603Z,93648.19
2022-11-16T19:16:55.620Z,93654.63
2022-11-16T19:18:58.405Z,93662.31
2022-11-16T19:21:05.232Z,93638.06
2022-11-16T19:23:06.869Z,93649.63
2022-11-16T19:25:08.992Z,93649.84
2022-11-16T19:27:10.596Z,93651.06
2022-11-16T19:29:12.249Z,93654.13
2022-11-16T19:31:22.657Z,93661.00
2022-11-16T19:33:24.367Z,93644.91
2022-11-16T19:35:26.156Z,93639.22
2022-11-16T19:37:27.737Z,93652.72
2022-11-16T19:39:29.347Z,93653.34
2022-11-16T19:41:31.190Z,93661.81
2022-11-16T19:43:33.739Z,93659.38
2022-11-16T19:45:35.637Z,93658.44
2022-11-16T19:47:37.321Z,93673.34
2022-11-16T19:49:38.893Z,93681.81
2022-11-16T19:51:40.556Z,93649.75
2022-11-16T19:53:42.492Z,93653.88
2022-11-16T19:55:53.025Z,93660.63
2022-11-16T19:57:54.748Z,93636.91
2022-11-16T19:59:56.475Z,93648.50
2022-11-16T20:01:58.177Z,93650.94
2022-11-16T20:04:02.289Z,93641.78
2022-11-16T20:06:23.920Z,93641.34
2022-11-16T20:08:25.607Z,93640.22
2022-11-16T20:10:29.369Z,93629.00
2022-11-16T20:12:30.961Z,93631.50
2022-11-16T20:14:32.608Z,93645.03
2022-11-16T20:16:39.069Z,93635.78
2022-11-16T20:18:42.395Z,93631.81
2022-11-16T20:20:43.960Z,93634.88
2022-11-16T20:22:50.715Z,93644.34
2022-11-16T20:24:52.316Z,93624.06
2022-11-16T20:26:53.911Z,93589.25
2022-11-16T20:28:56.357Z,93623.25
2022-11-16T20:30:57.905Z,93605.28
2022-11-16T20:32:59.488Z,93606.34
2022-11-16T20:35:01.115Z,93603.53
2022-11-16T20:37:02.647Z,93591.75
2022-11-16T20:39:04.232Z,93598.41
2022-11-16T20:41:13.136Z,93599.03
2022-11-16T20:43:14.789Z,93602.91
2022-11-16T20:45:16.509Z,93587.19
2022-11-16T20:47:18.216Z,93592.63
2022-11-16T20:49:19.904Z,93590.00
2022-11-16T20:51:21.539Z,93611.75
2022-11-16T20:53:23.209Z,93596.31
2022-11-16T20:55:24.750Z,93583.72
2022-11-16T20:57:26.321Z,93597.09
2022-11-16T20:59:28.306Z,93602.34
2022-11-16T21:01:31.974Z,93591.31
2022-11-16T21:03:33.998Z,93582.78
2022-11-16T21:05:43.701Z,93588.03
2022-11-16T21:07:45.265Z,93585.69
2022-11-16T21:10:05.059Z,93598.28
2022-11-16T21:12:25.548Z,93581.63
2022-11-16T21:14:27.236Z,93577.41
2022-11-16T21:16:28.855Z,93576.38
2022-11-16T21:18:31.102Z,93569.59
2022-11-16T21:20:32.670Z,93568.63
2022-11-16T21:22:34.265Z,93581.34
2022-11-16T21:24:35.822Z,93579.53
2022-11-16T21:26:37.950Z,93578.72
2022-11-16T21:28:40.158Z,93559.75
2022-11-16T21:30:41.727Z,93566.59
2022-11-16T21:32:43.304Z,93572.28
2022-11-16T21:34:45.015Z,93559.47
2022-11-16T21:36:46.726Z,93568.34
2022-11-16T21:38:48.784Z,93577.91
2022-11-16T21:40:50.413Z,93568.41
2022-11-16T21:42:52.292Z,93563.56
2022-11-16T21:44:53.955Z,93548.22
2022-11-16T21:46:55.517Z,93559.38
2022-11-16T21:48:57.959Z,93560.00
2022-11-16T21:51:16.735Z,93566.53
2022-11-16T21:53:18.325Z,93556.13
2022-11-16T21:55:19.906Z,93558.00
2022-11-16T21:57:22.148Z,93558.69
2022-11-16T21:59:23.708Z,93547.41
2022-11-16T22:01:25.370Z,93558.63
2022-11-16T22:03:31.333Z,93546.16
2022-11-16T22:05:51.365Z,93538.91
2022-11-16T22:07:52.987Z,93542.16
2022-11-16T22:09:54.594Z,93539.81
2022-11-16T22:11:59.827Z,93548.69
2022-11-16T22:14:04.261Z,93540.78
2022-11-16T22:16:13.396Z,93540.56
2022-11-16T22:18:15.174Z,93528.44
2022-11-16T22:20:17.172Z,93530.25
2022-11-16T22:22:18.758Z,93538.56
2022-11-16T22:24:20.427Z,93529.50
2022-11-16T22:26:21.999Z,93522.41
2022-11-16T22:28:23.548Z,93534.44
2022-11-16T22:30:25.208Z,93535.88
2022-11-16T22:32:26.919Z,93536.94
2022-11-16T22:34:28.529Z,93526.56
2022-11-16T22:36:30.216Z,93505.28
2022-11-16T22:38:31.977Z,93518.53
2022-11-16T22:40:33.565Z,93485.66
2022-11-16T22:42:35.160Z,93509.16
2022-11-16T22:44:36.828Z,93500.78
2022-11-16T22:46:38.426Z,93500.28
2022-11-16T22:48:41.113Z,93499.16
2022-11-16T22:50:42.872Z,93508.06
2022-11-16T22:52:44.486Z,93502.88
2022-11-16T22:54:46.067Z,93505.56
2022-11-16T22:56:48.442Z,93490.88
2022-11-16T22:58:50.377Z,93508.13
2022-11-16T23:00:52.329Z,93508.41
2022-11-16T23:02:53.984Z,93502.75
2022-11-16T23:04:55.631Z,93491.22
2022-11-16T23:06:57.204Z,93484.13
2022-11-16T23:08:58.929Z,93498.09
2022-11-16T23:11:31.365Z,93502.84
2022-11-16T23:13:51.263Z,93512.19
2022-11-16T23:15:52.827Z,93496.34
2022-11-16T23:17:54.436Z,93483.06
2022-11-16T23:20:17.599Z,93473.63
2022-11-16T23:22:39.962Z,93495.44
2022-11-16T23:25:00.283Z,93490.81
2022-11-16T23:27:22.176Z,93496.22
2022-11-16T23:29:23.784Z,93495.13
2022-11-16T23:31:25.499Z,93497.25
2022-11-16T23:33:43.868Z,93483.16
2022-11-16T23:35:45.560Z,93481.63
2022-11-16T23:38:00.195Z,93481.97
2022-11-16T23:40:01.789Z,93483.69
2022-11-16T23:42:35.742Z,93483.38
2022-11-16T23:44:37.353Z,93469.22
2022-11-16T23:46:38.912Z,93476.13
2022-11-16T23:48:40.476Z,93484.97
2022-11-16T23:50:42.591Z,93471.84
2022-11-16T23:52:44.257Z,93460.63
2022-11-16T23:54:45.852Z,93464.03
2022-11-16T23:56:47.502Z,93474.19
2022-11-16T23:58:49.190Z,93459.41
